sensor_id;sensor_type;location;lat;lon;timestamp;temperature;humidity
33931;DHT22;20215;53.130;6.408;2022-08-27T00:01:44;25.60;58.70
33931;DHT22;20215;53.130;6.408;2022-08-27T00:04:10;25.60;58.70
33931;DHT22;20215;53.130;6.408;2022-08-27T00:06:36;25.60;58.70
33931;DHT22;20215;53.130;6.408;2022-08-27T00:09:02;25.60;58.70
33931;DHT22;20215;53.130;6.408;2022-08-27T00:11:28;25.60;58.70
33931;DHT22;20215;53.130;6.408;2022-08-27T00:13:54;25.60;58.70
33931;DHT22;20215;53.130;6.408;2022-08-27T00:16:20;25.50;58.70
33931;DHT22;20215;53.130;6.408;2022-08-27T00:18:47;25.60;58.80
33931;DHT22;20215;53.130;6.408;2022-08-27T00:21:13;25.60;58.80
33931;DHT22;20215;53.130;6.408;2022-08-27T00:23:39;25.50;58.70
33931;DHT22;20215;53.130;6.408;2022-08-27T00:26:06;25.50;58.70
33931;DHT22;20215;53.130;6.408;2022-08-27T00:28:32;25.50;58.70
33931;DHT22;20215;53.130;6.408;2022-08-27T00:30:59;25.50;58.80
33931;DHT22;20215;53.130;6.408;2022-08-27T00:33:25;25.50;59.30
33931;DHT22;20215;53.130;6.408;2022-08-27T00:35:51;25.50;58.80
33931;DHT22;20215;53.130;6.408;2022-08-27T00:38:18;25.50;58.80
33931;DHT22;20215;53.130;6.408;2022-08-27T00:40:44;25.50;58.80
33931;DHT22;20215;53.130;6.408;2022-08-27T00:43:10;25.50;58.80
33931;DHT22;20215;53.130;6.408;2022-08-27T00:45:39;25.40;58.80
33931;DHT22;20215;53.130;6.408;2022-08-27T00:48:06;25.40;58.80
33931;DHT22;20215;53.130;6.408;2022-08-27T00:50:38;25.40;58.80
33931;DHT22;20215;53.130;6.408;2022-08-27T00:53:08;25.40;58.80
33931;DHT22;20215;53.130;6.408;2022-08-27T00:58:55;25.40;58.80
33931;DHT22;20215;53.130;6.408;2022-08-27T01:01:29;25.30;58.90
33931;DHT22;20215;53.130;6.408;2022-08-27T01:03:58;25.30;58.90
33931;DHT22;20215;53.130;6.408;2022-08-27T01:06:30;25.30;58.90
33931;DHT22;20215;53.130;6.408;2022-08-27T01:09:11;25.30;58.90
33931;DHT22;20215;53.130;6.408;2022-08-27T01:11:38;25.30;58.90
33931;DHT22;20215;53.130;6.408;2022-08-27T01:14:04;25.30;59.40
33931;DHT22;20215;53.130;6.408;2022-08-27T01:16:36;25.30;58.90
33931;DHT22;20215;53.130;6.408;2022-08-27T01:19:07;25.30;58.90
33931;DHT22;20215;53.130;6.408;2022-08-27T01:21:48;25.30;58.90
33931;DHT22;20215;53.130;6.408;2022-08-27T01:24:37;25.30;58.90
33931;DHT22;20215;53.130;6.408;2022-08-27T01:27:08;25.30;58.80
33931;DHT22;20215;53.130;6.408;2022-08-27T01:29:35;25.30;59.00
33931;DHT22;20215;53.130;6.408;2022-08-27T01:32:08;25.30;59.00
33931;DHT22;20215;53.130;6.408;2022-08-27T01:34:34;25.20;58.90
33931;DHT22;20215;53.130;6.408;2022-08-27T01:37:00;25.20;58.90
33931;DHT22;20215;53.130;6.408;2022-08-27T01:39:26;25.20;58.90
33931;DHT22;20215;53.130;6.408;2022-08-27T01:41:51;25.20;58.80
33931;DHT22;20215;53.130;6.408;2022-08-27T01:44:17;25.20;58.80
33931;DHT22;20215;53.130;6.408;2022-08-27T01:46:44;25.20;58.80
33931;DHT22;20215;53.130;6.408;2022-08-27T01:49:09;25.30;58.90
33931;DHT22;20215;53.130;6.408;2022-08-27T01:51:35;25.30;58.90
33931;DHT22;20215;53.130;6.408;2022-08-27T01:54:01;25.20;58.70
33931;DHT22;20215;53.130;6.408;2022-08-27T01:56:27;25.20;58.70
33931;DHT22;20215;53.130;6.408;2022-08-27T01:58:54;25.30;59.30
33931;DHT22;20215;53.130;6.408;2022-08-27T02:01:20;25.30;58.80
33931;DHT22;20215;53.130;6.408;2022-08-27T02:03:45;25.30;59.20
33931;DHT22;20215;53.130;6.408;2022-08-27T02:06:13;25.20;58.70
33931;DHT22;20215;53.130;6.408;2022-08-27T02:08:39;25.30;58.70
33931;DHT22;20215;53.130;6.408;2022-08-27T02:11:06;25.20;58.60
33931;DHT22;20215;53.130;6.408;2022-08-27T02:13:33;25.20;58.70
33931;DHT22;20215;53.130;6.408;2022-08-27T02:15:58;25.20;58.70
33931;DHT22;20215;53.130;6.408;2022-08-27T02:18:24;25.20;58.60
33931;DHT22;20215;53.130;6.408;2022-08-27T02:20:50;25.20;58.60
33931;DHT22;20215;53.130;6.408;2022-08-27T02:23:16;25.20;58.60
33931;DHT22;20215;53.130;6.408;2022-08-27T02:25:42;25.20;58.60
33931;DHT22;20215;53.130;6.408;2022-08-27T02:28:08;25.20;58.60
33931;DHT22;20215;53.130;6.408;2022-08-27T02:30:34;25.20;58.60
33931;DHT22;20215;53.130;6.408;2022-08-27T02:33:01;25.20;58.60
33931;DHT22;20215;53.130;6.408;2022-08-27T02:35:29;25.20;58.60
33931;DHT22;20215;53.130;6.408;2022-08-27T02:37:55;25.10;58.50
33931;DHT22;20215;53.130;6.408;2022-08-27T02:40:22;25.10;58.50
33931;DHT22;20215;53.130;6.408;2022-08-27T02:42:48;25.10;58.60
33931;DHT22;20215;53.130;6.408;2022-08-27T02:45:15;25.20;58.70
33931;DHT22;20215;53.130;6.408;2022-08-27T02:47:41;25.10;58.60
33931;DHT22;20215;53.130;6.408;2022-08-27T02:50:08;25.10;58.60
33931;DHT22;20215;53.130;6.408;2022-08-27T02:52:34;25.10;58.60
33931;DHT22;20215;53.130;6.408;2022-08-27T02:54:59;25.10;58.60
33931;DHT22;20215;53.130;6.408;2022-08-27T02:57:25;25.10;58.60
33931;DHT22;20215;53.130;6.408;2022-08-27T02:59:51;25.10;58.60
33931;DHT22;20215;53.130;6.408;2022-08-27T03:02:18;25.10;58.60
33931;DHT22;20215;53.130;6.408;2022-08-27T03:04:44;25.10;59.10
33931;DHT22;20215;53.130;6.408;2022-08-27T03:07:10;25.10;58.60
33931;DHT22;20215;53.130;6.408;2022-08-27T03:09:36;25.10;58.60
33931;DHT22;20215;53.130;6.408;2022-08-27T03:12:02;25.10;58.60
33931;DHT22;20215;53.130;6.408;2022-08-27T03:14:28;25.00;58.50
33931;DHT22;20215;53.130;6.408;2022-08-27T03:16:54;25.00;58.50
33931;DHT22;20215;53.130;6.408;2022-08-27T03:19:20;25.00;58.50
33931;DHT22;20215;53.130;6.408;2022-08-27T03:21:46;25.00;58.50
33931;DHT22;20215;53.130;6.408;2022-08-27T03:24:12;25.00;58.50
33931;DHT22;20215;53.130;6.408;2022-08-27T03:26:38;25.00;58.50
33931;DHT22;20215;53.130;6.408;2022-08-27T03:29:05;25.00;58.50
33931;DHT22;20215;53.130;6.408;2022-08-27T03:31:31;25.00;58.50
33931;DHT22;20215;53.130;6.408;2022-08-27T03:34:04;25.00;58.50
33931;DHT22;20215;53.130;6.408;2022-08-27T03:36:34;25.00;58.50
33931;DHT22;20215;53.130;6.408;2022-08-27T03:39:00;25.00;58.60
33931;DHT22;20215;53.130;6.408;2022-08-27T03:41:25;25.00;58.60
33931;DHT22;20215;53.130;6.408;2022-08-27T03:43:51;25.00;58.50
33931;DHT22;20215;53.130;6.408;2022-08-27T03:46:18;25.00;58.60
33931;DHT22;20215;53.130;6.408;2022-08-27T03:48:45;25.00;58.60
33931;DHT22;20215;53.130;6.408;2022-08-27T03:51:13;24.90;58.50
33931;DHT22;20215;53.130;6.408;2022-08-27T03:53:41;25.00;58.60
33931;DHT22;20215;53.130;6.408;2022-08-27T03:56:07;25.00;58.60
33931;DHT22;20215;53.130;6.408;2022-08-27T03:58:34;25.00;58.60
33931;DHT22;20215;53.130;6.408;2022-08-27T04:01:00;25.00;58.60
33931;DHT22;20215;53.130;6.408;2022-08-27T04:03:26;24.90;58.50
33931;DHT22;20215;53.130;6.408;2022-08-27T04:05:54;24.90;58.60
33931;DHT22;20215;53.130;6.408;2022-08-27T04:08:21;24.90;58.50
33931;DHT22;20215;53.130;6.408;2022-08-27T04:10:47;24.90;58.50
33931;DHT22;20215;53.130;6.408;2022-08-27T04:13:14;24.90;58.50
33931;DHT22;20215;53.130;6.408;2022-08-27T04:15:44;24.90;58.50
33931;DHT22;20215;53.130;6.408;2022-08-27T04:18:10;24.90;58.50
33931;DHT22;20215;53.130;6.408;2022-08-27T04:20:37;24.90;58.50
33931;DHT22;20215;53.130;6.408;2022-08-27T04:23:04;24.90;58.60
33931;DHT22;20215;53.130;6.408;2022-08-27T04:25:30;24.90;58.60
33931;DHT22;20215;53.130;6.408;2022-08-27T04:27:56;24.90;58.60
33931;DHT22;20215;53.130;6.408;2022-08-27T04:30:21;24.90;58.60
33931;DHT22;20215;53.130;6.408;2022-08-27T04:32:47;24.80;58.50
33931;DHT22;20215;53.130;6.408;2022-08-27T04:35:12;24.80;58.50
33931;DHT22;20215;53.130;6.408;2022-08-27T04:37:38;24.80;58.50
33931;DHT22;20215;53.130;6.408;2022-08-27T04:40:05;24.80;58.50
33931;DHT22;20215;53.130;6.408;2022-08-27T04:42:31;24.80;58.60
33931;DHT22;20215;53.130;6.408;2022-08-27T04:44:56;24.80;58.60
33931;DHT22;20215;53.130;6.408;2022-08-27T04:47:22;24.80;58.60
33931;DHT22;20215;53.130;6.408;2022-08-27T04:49:47;24.80;58.60
33931;DHT22;20215;53.130;6.408;2022-08-27T04:52:14;24.80;58.60
33931;DHT22;20215;53.130;6.408;2022-08-27T04:54:40;24.80;58.60
33931;DHT22;20215;53.130;6.408;2022-08-27T04:57:06;24.80;58.50
33931;DHT22;20215;53.130;6.408;2022-08-27T04:59:33;24.80;58.50
33931;DHT22;20215;53.130;6.408;2022-08-27T05:01:59;24.70;58.40
33931;DHT22;20215;53.130;6.408;2022-08-27T05:04:26;24.80;58.50
33931;DHT22;20215;53.130;6.408;2022-08-27T05:06:53;24.70;58.40
33931;DHT22;20215;53.130;6.408;2022-08-27T05:09:19;24.80;58.50
33931;DHT22;20215;53.130;6.408;2022-08-27T05:11:44;24.70;58.40
33931;DHT22;20215;53.130;6.408;2022-08-27T05:14:12;24.80;58.40
33931;DHT22;20215;53.130;6.408;2022-08-27T05:16:39;24.70;58.40
33931;DHT22;20215;53.130;6.408;2022-08-27T05:19:07;24.80;58.40
33931;DHT22;20215;53.130;6.408;2022-08-27T05:21:34;24.80;58.30
33931;DHT22;20215;53.130;6.408;2022-08-27T05:24:02;24.80;58.30
33931;DHT22;20215;53.130;6.408;2022-08-27T05:26:29;24.80;58.20
33931;DHT22;20215;53.130;6.408;2022-08-27T05:28:57;24.80;58.20
33931;DHT22;20215;53.130;6.408;2022-08-27T05:31:23;24.80;58.10
33931;DHT22;20215;53.130;6.408;2022-08-27T05:33:48;24.80;58.10
33931;DHT22;20215;53.130;6.408;2022-08-27T05:36:26;24.80;58.10
33931;DHT22;20215;53.130;6.408;2022-08-27T05:38:53;24.80;58.00
33931;DHT22;20215;53.130;6.408;2022-08-27T05:41:25;24.80;58.50
33931;DHT22;20215;53.130;6.408;2022-08-27T05:43:53;24.80;57.90
33931;DHT22;20215;53.130;6.408;2022-08-27T05:46:22;24.90;57.90
33931;DHT22;20215;53.130;6.408;2022-08-27T05:48:49;24.80;57.80
33931;DHT22;20215;53.130;6.408;2022-08-27T05:51:21;24.80;57.80
33931;DHT22;20215;53.130;6.408;2022-08-27T05:53:48;24.90;57.80
33931;DHT22;20215;53.130;6.408;2022-08-27T05:56:15;24.90;57.70
33931;DHT22;20215;53.130;6.408;2022-08-27T05:58:41;24.90;57.70
33931;DHT22;20215;53.130;6.408;2022-08-27T06:01:27;24.90;57.70
33931;DHT22;20215;53.130;6.408;2022-08-27T06:03:54;24.90;57.60
33931;DHT22;20215;53.130;6.408;2022-08-27T06:06:20;24.90;57.60
33931;DHT22;20215;53.130;6.408;2022-08-27T06:08:48;24.90;57.60
33931;DHT22;20215;53.130;6.408;2022-08-27T06:11:15;24.90;57.60
33931;DHT22;20215;53.130;6.408;2022-08-27T06:13:42;24.90;57.60
33931;DHT22;20215;53.130;6.408;2022-08-27T06:16:10;24.90;57.60
33931;DHT22;20215;53.130;6.408;2022-08-27T06:18:39;24.90;57.50
33931;DHT22;20215;53.130;6.408;2022-08-27T06:21:06;24.90;57.50
33931;DHT22;20215;53.130;6.408;2022-08-27T06:23:33;24.90;57.50
33931;DHT22;20215;53.130;6.408;2022-08-27T06:25:59;24.90;57.50
33931;DHT22;20215;53.130;6.408;2022-08-27T06:28:26;25.00;57.40
33931;DHT22;20215;53.130;6.408;2022-08-27T06:33:31;25.00;57.20
33931;DHT22;20215;53.130;6.408;2022-08-27T06:35:59;25.00;57.20
33931;DHT22;20215;53.130;6.408;2022-08-27T06:38:24;25.00;57.20
33931;DHT22;20215;53.130;6.408;2022-08-27T06:40:51;25.00;57.20
33931;DHT22;20215;53.130;6.408;2022-08-27T06:43:16;25.00;57.10
33931;DHT22;20215;53.130;6.408;2022-08-27T06:45:42;25.10;57.10
33931;DHT22;20215;53.130;6.408;2022-08-27T06:48:07;25.10;57.00
33931;DHT22;20215;53.130;6.408;2022-08-27T06:50:41;25.10;56.90
33931;DHT22;20215;53.130;6.408;2022-08-27T06:53:07;25.20;57.00
33931;DHT22;20215;53.130;6.408;2022-08-27T06:55:40;25.20;57.30
33931;DHT22;20215;53.130;6.408;2022-08-27T06:58:06;25.30;57.40
33931;DHT22;20215;53.130;6.408;2022-08-27T07:00:31;25.30;57.40
33931;DHT22;20215;53.130;6.408;2022-08-27T07:02:57;25.30;57.10
33931;DHT22;20215;53.130;6.408;2022-08-27T07:05:23;25.30;57.10
33931;DHT22;20215;53.130;6.408;2022-08-27T07:07:48;25.40;56.90
33931;DHT22;20215;53.130;6.408;2022-08-27T07:10:14;25.40;56.60
33931;DHT22;20215;53.130;6.408;2022-08-27T07:12:40;25.40;56.40
33931;DHT22;20215;53.130;6.408;2022-08-27T07:15:06;25.50;56.50
33931;DHT22;20215;53.130;6.408;2022-08-27T07:17:32;25.50;56.30
33931;DHT22;20215;53.130;6.408;2022-08-27T07:19:57;25.50;56.20
33931;DHT22;20215;53.130;6.408;2022-08-27T07:22:23;25.60;56.20
33931;DHT22;20215;53.130;6.408;2022-08-27T07:24:49;25.60;56.10
33931;DHT22;20215;53.130;6.408;2022-08-27T07:27:16;25.60;56.00
33931;DHT22;20215;53.130;6.408;2022-08-27T07:29:41;25.60;55.90
33931;DHT22;20215;53.130;6.408;2022-08-27T07:32:07;25.60;55.80
33931;DHT22;20215;53.130;6.408;2022-08-27T07:34:32;25.60;55.80
33931;DHT22;20215;53.130;6.408;2022-08-27T07:36:58;25.60;55.70
33931;DHT22;20215;53.130;6.408;2022-08-27T07:39:24;25.70;55.70
33931;DHT22;20215;53.130;6.408;2022-08-27T07:41:49;25.70;55.60
33931;DHT22;20215;53.130;6.408;2022-08-27T07:44:33;25.80;55.60
33931;DHT22;20215;53.130;6.408;2022-08-27T07:46:59;25.90;55.50
33931;DHT22;20215;53.130;6.408;2022-08-27T07:49:27;25.90;55.40
33931;DHT22;20215;53.130;6.408;2022-08-27T07:51:53;25.90;55.20
33931;DHT22;20215;53.130;6.408;2022-08-27T07:54:21;25.90;55.30
33931;DHT22;20215;53.130;6.408;2022-08-27T07:56:47;25.90;55.30
33931;DHT22;20215;53.130;6.408;2022-08-27T07:59:12;25.80;55.30
33931;DHT22;20215;53.130;6.408;2022-08-27T08:01:38;25.90;55.40
33931;DHT22;20215;53.130;6.408;2022-08-27T08:04:07;25.90;55.30
33931;DHT22;20215;53.130;6.408;2022-08-27T08:06:36;26.00;55.20
33931;DHT22;20215;53.130;6.408;2022-08-27T08:09:03;26.00;55.00
33931;DHT22;20215;53.130;6.408;2022-08-27T08:11:28;26.10;54.90
33931;DHT22;20215;53.130;6.408;2022-08-27T08:13:54;26.10;54.70
33931;DHT22;20215;53.130;6.408;2022-08-27T08:16:23;26.20;54.60
33931;DHT22;20215;53.130;6.408;2022-08-27T08:18:49;26.30;54.50
33931;DHT22;20215;53.130;6.408;2022-08-27T08:21:14;26.30;54.40
33931;DHT22;20215;53.130;6.408;2022-08-27T08:23:41;26.30;54.30
33931;DHT22;20215;53.130;6.408;2022-08-27T08:26:08;26.30;54.30
33931;DHT22;20215;53.130;6.408;2022-08-27T08:28:34;26.30;54.20
33931;DHT22;20215;53.130;6.408;2022-08-27T08:31:01;26.30;54.10
33931;DHT22;20215;53.130;6.408;2022-08-27T08:33:27;26.30;54.10
33931;DHT22;20215;53.130;6.408;2022-08-27T08:35:52;26.30;54.00
33931;DHT22;20215;53.130;6.408;2022-08-27T08:38:18;26.30;54.00
33931;DHT22;20215;53.130;6.408;2022-08-27T08:40:49;26.30;53.90
33931;DHT22;20215;53.130;6.408;2022-08-27T08:45:55;26.40;53.70
33931;DHT22;20215;53.130;6.408;2022-08-27T08:48:23;26.50;53.60
33931;DHT22;20215;53.130;6.408;2022-08-27T08:55:59;26.50;53.00
33931;DHT22;20215;53.130;6.408;2022-08-27T08:58:45;26.60;53.00
33931;DHT22;20215;53.130;6.408;2022-08-27T09:01:15;26.60;52.90
33931;DHT22;20215;53.130;6.408;2022-08-27T09:03:53;26.60;52.90
33931;DHT22;20215;53.130;6.408;2022-08-27T09:06:25;26.70;53.30
33931;DHT22;20215;53.130;6.408;2022-08-27T09:08:52;26.70;53.20
33931;DHT22;20215;53.130;6.408;2022-08-27T09:11:49;26.70;53.40
33931;DHT22;20215;53.130;6.408;2022-08-27T09:14:45;26.60;53.20
33931;DHT22;20215;53.130;6.408;2022-08-27T09:17:12;26.60;53.60
33931;DHT22;20215;53.130;6.408;2022-08-27T09:19:38;26.50;53.80
33931;DHT22;20215;53.130;6.408;2022-08-27T09:25:24;26.50;53.80
33931;DHT22;20215;53.130;6.408;2022-08-27T09:27:53;26.50;54.00
33931;DHT22;20215;53.130;6.408;2022-08-27T09:30:23;26.40;53.90
33931;DHT22;20215;53.130;6.408;2022-08-27T09:32:59;26.50;54.00
33931;DHT22;20215;53.130;6.408;2022-08-27T09:35:27;26.50;53.80
33931;DHT22;20215;53.130;6.408;2022-08-27T09:37:54;26.50;53.80
33931;DHT22;20215;53.130;6.408;2022-08-27T09:40:32;26.50;53.70
33931;DHT22;20215;53.130;6.408;2022-08-27T09:43:18;26.60;53.60
33931;DHT22;20215;53.130;6.408;2022-08-27T09:45:51;26.60;53.80
33931;DHT22;20215;53.130;6.408;2022-08-27T09:48:27;26.70;53.70
33931;DHT22;20215;53.130;6.408;2022-08-27T09:51:15;26.80;53.80
33931;DHT22;20215;53.130;6.408;2022-08-27T09:59:20;26.80;52.80
33931;DHT22;20215;53.130;6.408;2022-08-27T10:02:17;26.80;52.90
33931;DHT22;20215;53.130;6.408;2022-08-27T10:04:49;26.80;52.70
33931;DHT22;20215;53.130;6.408;2022-08-27T10:10:01;26.90;52.70
33931;DHT22;20215;53.130;6.408;2022-08-27T10:27:29;27.40;51.50
33931;DHT22;20215;53.130;6.408;2022-08-27T10:30:02;27.60;51.10
33931;DHT22;20215;53.130;6.408;2022-08-27T10:36:00;27.90;50.10
33931;DHT22;20215;53.130;6.408;2022-08-27T10:38:35;27.90;49.70
33931;DHT22;20215;53.130;6.408;2022-08-27T10:41:25;27.90;49.70
33931;DHT22;20215;53.130;6.408;2022-08-27T10:44:14;27.90;49.70
33931;DHT22;20215;53.130;6.408;2022-08-27T10:52:15;28.40;48.70
33931;DHT22;20215;53.130;6.408;2022-08-27T10:54:47;28.40;48.30
33931;DHT22;20215;53.130;6.408;2022-08-27T11:00:08;29.30;47.00
33931;DHT22;20215;53.130;6.408;2022-08-27T11:02:54;30.20;45.40
33931;DHT22;20215;53.130;6.408;2022-08-27T11:05:51;30.20;44.80
33931;DHT22;20215;53.130;6.408;2022-08-27T11:11:06;30.80;45.20
33931;DHT22;20215;53.130;6.408;2022-08-27T11:13:43;31.80;43.70
33931;DHT22;20215;53.130;6.408;2022-08-27T11:16:17;31.50;43.00
33931;DHT22;20215;53.130;6.408;2022-08-27T11:18:55;31.70;43.10
33931;DHT22;20215;53.130;6.408;2022-08-27T11:21:32;31.60;42.60
33931;DHT22;20215;53.130;6.408;2022-08-27T11:27:04;31.10;42.70
33931;DHT22;20215;53.130;6.408;2022-08-27T11:29:46;30.60;43.30
33931;DHT22;20215;53.130;6.408;2022-08-27T11:32:26;30.20;44.20
33931;DHT22;20215;53.130;6.408;2022-08-27T11:34:58;30.50;44.70
33931;DHT22;20215;53.130;6.408;2022-08-27T11:38:03;31.80;42.70
33931;DHT22;20215;53.130;6.408;2022-08-27T11:43:16;32.50;40.30
33931;DHT22;20215;53.130;6.408;2022-08-27T11:46:01;31.80;41.30
33931;DHT22;20215;53.130;6.408;2022-08-27T11:48:28;31.00;42.10
33931;DHT22;20215;53.130;6.408;2022-08-27T11:51:04;30.50;43.20
33931;DHT22;20215;53.130;6.408;2022-08-27T11:53:53;30.30;43.60
33931;DHT22;20215;53.130;6.408;2022-08-27T11:59:31;30.30;44.10
33931;DHT22;20215;53.130;6.408;2022-08-27T12:04:47;31.80;41.00
33931;DHT22;20215;53.130;6.408;2022-08-27T12:15:45;29.60;44.40
33931;DHT22;20215;53.130;6.408;2022-08-27T12:18:31;29.70;44.30
33931;DHT22;20215;53.130;6.408;2022-08-27T12:21:28;32.40;42.00
33931;DHT22;20215;53.130;6.408;2022-08-27T12:29:47;33.00;38.60
33931;DHT22;20215;53.130;6.408;2022-08-27T12:35:31;34.70;38.50
33931;DHT22;20215;53.130;6.408;2022-08-27T12:40:55;37.20;35.00
33931;DHT22;20215;53.130;6.408;2022-08-27T12:43:29;38.30;33.80
33931;DHT22;20215;53.130;6.408;2022-08-27T12:46:00;39.10;32.90
33931;DHT22;20215;53.130;6.408;2022-08-27T12:48:30;39.60;32.20
33931;DHT22;20215;53.130;6.408;2022-08-27T12:51:02;39.90;31.70
33931;DHT22;20215;53.130;6.408;2022-08-27T12:53:41;40.10;31.40
33931;DHT22;20215;53.130;6.408;2022-08-27T12:56:29;40.40;31.20
33931;DHT22;20215;53.130;6.408;2022-08-27T13:04:44;36.20;34.00
33931;DHT22;20215;53.130;6.408;2022-08-27T13:07:12;34.70;35.90
33931;DHT22;20215;53.130;6.408;2022-08-27T13:09:39;35.30;36.20
33931;DHT22;20215;53.130;6.408;2022-08-27T13:12:15;36.60;34.90
33931;DHT22;20215;53.130;6.408;2022-08-27T13:14:42;37.30;33.80
33931;DHT22;20215;53.130;6.408;2022-08-27T13:17:12;36.20;34.20
33931;DHT22;20215;53.130;6.408;2022-08-27T13:19:59;36.90;34.40
33931;DHT22;20215;53.130;6.408;2022-08-27T13:22:26;35.60;34.70
33931;DHT22;20215;53.130;6.408;2022-08-27T13:24:54;34.30;36.20
33931;DHT22;20215;53.130;6.408;2022-08-27T13:27:29;33.10;37.90
33931;DHT22;20215;53.130;6.408;2022-08-27T13:29:58;33.30;38.90
33931;DHT22;20215;53.130;6.408;2022-08-27T13:32:26;33.00;38.40
33931;DHT22;20215;53.130;6.408;2022-08-27T13:34:54;32.20;39.20
33931;DHT22;20215;53.130;6.408;2022-08-27T13:37:24;31.50;40.20
33931;DHT22;20215;53.130;6.408;2022-08-27T13:39:56;33.00;39.70
33931;DHT22;20215;53.130;6.408;2022-08-27T13:42:23;34.50;37.70
33931;DHT22;20215;53.130;6.408;2022-08-27T13:44:54;34.40;36.70
33931;DHT22;20215;53.130;6.408;2022-08-27T13:47:26;33.30;37.60
33931;DHT22;20215;53.130;6.408;2022-08-27T13:50:16;33.50;38.60
33931;DHT22;20215;53.130;6.408;2022-08-27T13:52:43;34.80;37.30
33931;DHT22;20215;53.130;6.408;2022-08-27T13:55:27;34.10;36.80
33931;DHT22;20215;53.130;6.408;2022-08-27T13:57:55;33.20;38.30
33931;DHT22;20215;53.130;6.408;2022-08-27T14:00:28;32.20;39.30
33931;DHT22;20215;53.130;6.408;2022-08-27T14:02:54;31.40;40.50
33931;DHT22;20215;53.130;6.408;2022-08-27T14:07:47;30.50;42.10
33931;DHT22;20215;53.130;6.408;2022-08-27T14:12:42;30.10;42.90
33931;DHT22;20215;53.130;6.408;2022-08-27T14:15:31;30.00;43.30
33931;DHT22;20215;53.130;6.408;2022-08-27T14:17:57;29.80;43.60
33931;DHT22;20215;53.130;6.408;2022-08-27T14:20:23;29.70;44.00
33931;DHT22;20215;53.130;6.408;2022-08-27T14:22:49;29.80;43.90
33931;DHT22;20215;53.130;6.408;2022-08-27T14:25:15;30.10;43.60
33931;DHT22;20215;53.130;6.408;2022-08-27T14:27:42;30.50;43.10
33931;DHT22;20215;53.130;6.408;2022-08-27T14:30:12;30.40;42.60
33931;DHT22;20215;53.130;6.408;2022-08-27T14:32:38;30.20;42.60
33931;DHT22;20215;53.130;6.408;2022-08-27T14:35:04;29.90;43.10
33931;DHT22;20215;53.130;6.408;2022-08-27T14:37:29;29.80;43.30
33931;DHT22;20215;53.130;6.408;2022-08-27T14:39:55;29.70;43.60
33931;DHT22;20215;53.130;6.408;2022-08-27T14:42:21;29.60;43.70
33931;DHT22;20215;53.130;6.408;2022-08-27T14:44:47;29.60;43.90
33931;DHT22;20215;53.130;6.408;2022-08-27T14:47:13;29.60;43.90
33931;DHT22;20215;53.130;6.408;2022-08-27T14:49:43;29.40;43.90
33931;DHT22;20215;53.130;6.408;2022-08-27T14:52:11;29.40;44.60
33931;DHT22;20215;53.130;6.408;2022-08-27T14:54:38;29.50;44.50
33931;DHT22;20215;53.130;6.408;2022-08-27T14:57:05;29.60;44.30
33931;DHT22;20215;53.130;6.408;2022-08-27T14:59:32;29.50;43.90
33931;DHT22;20215;53.130;6.408;2022-08-27T15:01:59;29.50;44.30
33931;DHT22;20215;53.130;6.408;2022-08-27T15:04:26;29.40;44.10
33931;DHT22;20215;53.130;6.408;2022-08-27T15:06:52;29.50;43.90
33931;DHT22;20215;53.130;6.408;2022-08-27T15:09:18;29.50;44.10
33931;DHT22;20215;53.130;6.408;2022-08-27T15:11:44;29.40;44.00
33931;DHT22;20215;53.130;6.408;2022-08-27T15:14:25;29.20;44.00
33931;DHT22;20215;53.130;6.408;2022-08-27T15:16:51;29.00;44.40
33931;DHT22;20215;53.130;6.408;2022-08-27T15:19:19;28.80;44.90
33931;DHT22;20215;53.130;6.408;2022-08-27T15:21:46;28.70;45.00
33931;DHT22;20215;53.130;6.408;2022-08-27T15:24:16;28.60;45.30
33931;DHT22;20215;53.130;6.408;2022-08-27T15:26:43;28.50;45.50
33931;DHT22;20215;53.130;6.408;2022-08-27T15:29:08;28.40;45.50
33931;DHT22;20215;53.130;6.408;2022-08-27T15:31:34;28.30;45.60
33931;DHT22;20215;53.130;6.408;2022-08-27T15:34:00;28.20;45.90
33931;DHT22;20215;53.130;6.408;2022-08-27T15:36:25;28.10;46.10
33931;DHT22;20215;53.130;6.408;2022-08-27T15:38:51;28.00;46.20
33931;DHT22;20215;53.130;6.408;2022-08-27T15:41:18;28.00;46.30
33931;DHT22;20215;53.130;6.408;2022-08-27T15:43:44;27.90;46.50
33931;DHT22;20215;53.130;6.408;2022-08-27T15:46:10;27.80;46.70
33931;DHT22;20215;53.130;6.408;2022-08-27T15:48:35;27.70;46.80
33931;DHT22;20215;53.130;6.408;2022-08-27T15:51:04;27.70;46.80
33931;DHT22;20215;53.130;6.408;2022-08-27T15:53:31;27.60;46.90
33931;DHT22;20215;53.130;6.408;2022-08-27T15:55:56;27.60;47.10
33931;DHT22;20215;53.130;6.408;2022-08-27T15:58:22;27.50;47.00
33931;DHT22;20215;53.130;6.408;2022-08-27T16:00:48;27.50;47.00
33931;DHT22;20215;53.130;6.408;2022-08-27T16:03:14;27.50;47.00
33931;DHT22;20215;53.130;6.408;2022-08-27T16:05:42;27.50;47.10
33931;DHT22;20215;53.130;6.408;2022-08-27T16:08:08;27.60;47.10
33931;DHT22;20215;53.130;6.408;2022-08-27T16:10:34;27.70;47.10
33931;DHT22;20215;53.130;6.408;2022-08-27T16:13:00;27.80;46.70
33931;DHT22;20215;53.130;6.408;2022-08-27T16:15:26;27.80;47.00
33931;DHT22;20215;53.130;6.408;2022-08-27T16:17:55;27.90;46.50
33931;DHT22;20215;53.130;6.408;2022-08-27T16:20:21;28.00;46.30
33931;DHT22;20215;53.130;6.408;2022-08-27T16:22:49;28.00;46.10
33931;DHT22;20215;53.130;6.408;2022-08-27T16:25:14;28.10;46.10
33931;DHT22;20215;53.130;6.408;2022-08-27T16:27:45;28.20;45.90
33931;DHT22;20215;53.130;6.408;2022-08-27T16:30:11;28.20;45.60
33931;DHT22;20215;53.130;6.408;2022-08-27T16:32:37;28.30;45.90
33931;DHT22;20215;53.130;6.408;2022-08-27T16:35:03;28.20;46.40
33931;DHT22;20215;53.130;6.408;2022-08-27T16:37:30;28.20;45.90
33931;DHT22;20215;53.130;6.408;2022-08-27T16:39:56;28.10;46.00
33931;DHT22;20215;53.130;6.408;2022-08-27T16:42:21;28.10;46.30
33931;DHT22;20215;53.130;6.408;2022-08-27T16:44:48;28.10;47.10
33931;DHT22;20215;53.130;6.408;2022-08-27T16:47:14;28.10;46.80
33931;DHT22;20215;53.130;6.408;2022-08-27T16:49:40;28.00;46.50
33931;DHT22;20215;53.130;6.408;2022-08-27T16:52:24;28.00;46.60
33931;DHT22;20215;53.130;6.408;2022-08-27T16:54:50;28.00;47.00
33931;DHT22;20215;53.130;6.408;2022-08-27T16:57:17;27.90;47.10
33931;DHT22;20215;53.130;6.408;2022-08-27T16:59:42;27.90;47.60
33931;DHT22;20215;53.130;6.408;2022-08-27T17:02:25;27.90;47.10
33931;DHT22;20215;53.130;6.408;2022-08-27T17:04:51;28.00;47.60
33931;DHT22;20215;53.130;6.408;2022-08-27T17:07:18;27.90;47.50
33931;DHT22;20215;53.130;6.408;2022-08-27T17:09:48;27.80;47.30
33931;DHT22;20215;53.130;6.408;2022-08-27T17:12:18;27.80;47.40
33931;DHT22;20215;53.130;6.408;2022-08-27T17:14:46;27.80;47.60
33931;DHT22;20215;53.130;6.408;2022-08-27T17:17:12;27.70;47.70
33931;DHT22;20215;53.130;6.408;2022-08-27T17:19:37;27.70;47.80